createdAt,value
2017-02-14T00:00:37.190Z,18.44
2017-02-14T00:01:17.680Z,18.45
2017-02-14T00:01:58.168Z,18.42
2017-02-14T00:02:38.671Z,18.39
2017-02-14T00:03:19.152Z,18.45
2017-02-14T00:03:59.646Z,18.47
2017-02-14T00:04:40.147Z,18.47
2017-02-14T00:05:20.633Z,18.47
2017-02-14T00:06:01.122Z,18.42
2017-02-14T00:06:41.607Z,18.47
2017-02-14T00:07:22.109Z,18.42
2017-02-14T00:08:02.614Z,18.49
2017-02-14T00:08:43.110Z,18.45
2017-02-14T00:09:23.594Z,18.45
2017-02-14T00:10:04.090Z,18.39
2017-02-14T00:10:44.588Z,18.47
2017-02-14T00:11:25.082Z,18.34
2017-02-14T00:12:05.592Z,18.38
2017-02-14T00:12:46.099Z,18.45
2017-02-14T00:13:26.582Z,18.41
2017-02-14T00:14:07.083Z,18.38
2017-02-14T00:14:47.583Z,18.35
2017-02-14T00:15:28.075Z,18.35
2017-02-14T00:16:08.558Z,18.36
2017-02-14T00:16:49.043Z,18.47
2017-02-14T00:17:29.534Z,18.42
2017-02-14T00:18:10.033Z,18.45
2017-02-14T00:18:50.525Z,18.36
2017-02-14T00:19:31.031Z,18.35
2017-02-14T00:20:11.519Z,18.35
2017-02-14T00:20:52.030Z,18.35
2017-02-14T00:21:32.519Z,18.36
2017-02-14T00:22:13.031Z,18.34
2017-02-14T00:22:53.513Z,18.34
2017-02-14T00:23:34.001Z,18.34
2017-02-14T00:24:14.496Z,18.35
2017-02-14T00:24:54.992Z,18.27
2017-02-14T00:25:35.475Z,18.34
2017-02-14T00:26:15.967Z,18.36
2017-02-14T00:26:56.485Z,18.35
2017-02-14T00:27:36.977Z,18.32
2017-02-14T00:28:17.469Z,18.36
2017-02-14T00:28:57.968Z,18.32
2017-02-14T00:29:38.469Z,18.31
2017-02-14T00:30:18.964Z,18.31
2017-02-14T00:30:59.472Z,18.31
2017-02-14T00:31:39.954Z,18.34
2017-02-14T00:32:20.445Z,18.29
2017-02-14T00:33:00.932Z,18.34
2017-02-14T00:33:41.447Z,18.29
2017-02-14T00:34:21.935Z,18.32
2017-02-14T00:35:02.434Z,18.29
2017-02-14T00:35:42.918Z,18.36
2017-02-14T00:36:23.405Z,18.32
2017-02-14T00:37:03.911Z,18.38
2017-02-14T00:37:44.409Z,18.35
2017-02-14T00:38:24.899Z,18.29
2017-02-14T00:39:05.407Z,18.36
2017-02-14T00:39:45.908Z,18.36
2017-02-14T00:40:26.403Z,18.34
2017-02-14T00:41:06.911Z,18.31
2017-02-14T00:41:47.432Z,18.31
2017-02-14T00:42:27.918Z,18.32
2017-02-14T00:43:08.410Z,18.31
2017-02-14T00:43:48.907Z,18.24
2017-02-14T00:44:29.394Z,18.31
2017-02-14T00:45:09.907Z,18.39
2017-02-14T00:45:50.402Z,18.34
2017-02-14T00:46:30.899Z,18.27
2017-02-14T00:47:11.413Z,18.32
2017-02-14T00:47:51.885Z,18.36
2017-02-14T00:48:32.372Z,18.31
2017-02-14T00:49:12.869Z,18.32
2017-02-14T00:49:53.357Z,18.35
2017-02-14T00:50:33.851Z,18.29
2017-02-14T00:51:14.346Z,18.31
2017-02-14T00:51:54.835Z,18.29
2017-02-14T00:52:35.320Z,18.29
2017-02-14T00:53:15.820Z,18.32
2017-02-14T00:53:56.317Z,18.32
2017-02-14T00:54:36.806Z,18.32
2017-02-14T00:55:17.312Z,18.26
2017-02-14T00:55:57.789Z,18.29
2017-02-14T00:56:38.280Z,18.38
2017-02-14T00:57:18.766Z,18.32
2017-02-14T00:57:59.249Z,18.21
2017-02-14T00:58:39.743Z,18.27
2017-02-14T00:59:20.233Z,18.31
2017-02-14T01:00:00.727Z,18.24
2017-02-14T01:00:41.231Z,18.29
2017-02-14T01:01:21.723Z,18.32
2017-02-14T01:02:02.211Z,18.31
2017-02-14T01:02:42.701Z,18.21
2017-02-14T01:03:23.207Z,18.23
2017-02-14T01:04:03.703Z,18.29
2017-02-14T01:04:44.202Z,18.29
2017-02-14T01:05:24.687Z,18.26
2017-02-14T01:06:05.185Z,18.27
2017-02-14T01:06:45.675Z,18.27
2017-02-14T01:07:26.183Z,18.31
2017-02-14T01:08:06.680Z,18.31
2017-02-14T01:08:47.163Z,18.32
2017-02-14T01:09:27.651Z,18.31
2017-02-14T01:10:08.142Z,18.29
2017-02-14T01:10:48.645Z,18.26
2017-02-14T01:11:29.132Z,18.24
2017-02-14T01:12:09.627Z,18.26
2017-02-14T01:12:50.121Z,18.24
2017-02-14T01:13:30.608Z,18.34
2017-02-14T01:14:11.095Z,18.29
2017-02-14T01:14:51.585Z,18.27
2017-02-14T01:15:32.074Z,18.24
2017-02-14T01:16:12.571Z,18.31
2017-02-14T01:16:53.055Z,18.2
2017-02-14T01:17:33.541Z,18.29
2017-02-14T01:18:14.022Z,18.24
2017-02-14T01:18:54.520Z,18.31
2017-02-14T01:19:35.012Z,18.24
2017-02-14T01:20:15.515Z,18.32
2017-02-14T01:20:56.021Z,18.17
2017-02-14T01:21:36.498Z,18.31
2017-02-14T01:22:16.988Z,18.31
2017-02-14T01:22:57.471Z,18.27
2017-02-14T01:23:37.966Z,18.2
2017-02-14T01:24:18.456Z,18.23
2017-02-14T01:24:58.943Z,18.27
2017-02-14T01:25:39.437Z,18.2
2017-02-14T01:26:19.927Z,18.24
2017-02-14T01:27:00.430Z,18.27
2017-02-14T01:27:40.911Z,18.26
2017-02-14T01:28:21.406Z,18.29
2017-02-14T01:29:01.904Z,18.29
2017-02-14T01:29:42.389Z,18.31
2017-02-14T01:30:22.878Z,18.27
2017-02-14T01:31:03.369Z,18.31
2017-02-14T01:31:43.873Z,18.29
2017-02-14T01:32:24.360Z,18.24
2017-02-14T01:33:04.851Z,18.32
2017-02-14T01:33:45.348Z,18.29
2017-02-14T01:34:25.837Z,18.31
2017-02-14T01:35:06.341Z,18.32
2017-02-14T01:35:46.832Z,18.31
2017-02-14T01:36:27.321Z,18.26
2017-02-14T01:37:07.816Z,18.31
2017-02-14T01:37:48.311Z,18.26
2017-02-14T01:38:28.797Z,18.32
2017-02-14T01:39:09.284Z,18.27
2017-02-14T01:39:49.781Z,18.2
2017-02-14T01:40:30.290Z,18.17
2017-02-14T01:41:10.779Z,18.29
2017-02-14T01:41:51.285Z,18.29
2017-02-14T01:42:31.786Z,18.26
2017-02-14T01:43:12.277Z,18.24
2017-02-14T01:43:52.784Z,18.27
2017-02-14T01:44:33.283Z,18.32
2017-02-14T01:45:13.785Z,18.31
2017-02-14T01:45:54.283Z,18.34
2017-02-14T01:46:34.787Z,18.31
2017-02-14T01:47:15.272Z,18.19
2017-02-14T01:47:55.789Z,18.27
2017-02-14T01:48:36.273Z,18.29
2017-02-14T01:49:16.757Z,18.23
2017-02-14T01:49:57.239Z,18.2
2017-02-14T01:50:37.730Z,18.29
2017-02-14T01:51:18.228Z,18.17
2017-02-14T01:51:58.714Z,18.17
2017-02-14T01:52:39.203Z,18.26
2017-02-14T01:53:19.688Z,18.19
2017-02-14T01:54:00.177Z,18.29
2017-02-14T01:54:40.673Z,18.17
2017-02-14T01:55:21.175Z,18.31
2017-02-14T01:56:01.653Z,18.27
2017-02-14T01:56:42.147Z,18.26
2017-02-14T01:57:22.642Z,18.23
2017-02-14T01:58:03.123Z,18.32
2017-02-14T01:58:43.611Z,18.19
2017-02-14T01:59:24.097Z,18.27
2017-02-14T02:00:04.590Z,18.27
2017-02-14T02:00:45.264Z,18.31
2017-02-14T02:01:25.745Z,18.19
2017-02-14T02:02:06.232Z,18.2
2017-02-14T02:02:46.743Z,18.24
2017-02-14T02:03:27.228Z,18.14
2017-02-14T02:04:07.721Z,18.24
2017-02-14T02:04:48.205Z,18.2
2017-02-14T02:05:28.719Z,18.27
2017-02-14T02:06:09.217Z,18.27
2017-02-14T02:06:49.689Z,18.29
2017-02-14T02:07:30.187Z,18.2
2017-02-14T02:08:10.679Z,18.27
2017-02-14T02:08:51.189Z,18.24
2017-02-14T02:09:31.682Z,18.31
2017-02-14T02:10:12.193Z,18.27
2017-02-14T02:10:52.663Z,18.2
2017-02-14T02:11:33.160Z,18.32
2017-02-14T02:12:13.656Z,18.14
2017-02-14T02:12:54.143Z,18.26
2017-02-14T02:13:34.632Z,18.19
2017-02-14T02:14:15.117Z,18.21
2017-02-14T02:14:55.609Z,18.16
2017-02-14T02:15:36.104Z,18.2
2017-02-14T02:16:16.594Z,18.16
2017-02-14T02:16:57.095Z,18.17
2017-02-14T02:17:37.600Z,18.21
2017-02-14T02:18:18.106Z,18.21
2017-02-14T02:18:58.597Z,18.19
2017-02-14T02:19:39.111Z,18.29
2017-02-14T02:20:19.600Z,18.17
2017-02-14T02:21:00.105Z,18.2
2017-02-14T02:21:40.600Z,18.21
2017-02-14T02:22:21.098Z,18.14
2017-02-14T02:23:01.590Z,18.2
2017-02-14T02:23:42.076Z,18.2
2017-02-14T02:24:22.568Z,18.17
2017-02-14T02:25:03.071Z,18.21
2017-02-14T02:25:43.550Z,18.14
2017-02-14T02:26:24.045Z,18.13
2017-02-14T02:27:04.544Z,18.2
2017-02-14T02:27:45.029Z,18.16
2017-02-14T02:28:25.518Z,18.19
2017-02-14T02:29:06.008Z,18.2
2017-02-14T02:29:46.510Z,18.23
2017-02-14T02:30:27.003Z,18.2
2017-02-14T02:31:07.495Z,18.2
2017-02-14T02:31:47.989Z,18.21
2017-02-14T02:32:28.484Z,18.19
2017-02-14T02:33:08.985Z,18.21
2017-02-14T02:33:49.483Z,18.19
2017-02-14T02:34:29.995Z,18.2
2017-02-14T02:35:10.489Z,18.23
2017-02-14T02:35:50.985Z,18.16
2017-02-14T02:36:31.488Z,18.14
2017-02-14T02:37:11.983Z,18.23
2017-02-14T02:37:52.470Z,18.2
2017-02-14T02:38:32.960Z,18.16
2017-02-14T02:39:13.442Z,18.13
2017-02-14T02:39:53.945Z,18.21
2017-02-14T02:40:34.426Z,18.21
2017-02-14T02:41:14.927Z,18.13
2017-02-14T02:41:55.431Z,18.08
2017-02-14T02:42:35.930Z,18.2
2017-02-14T02:43:16.425Z,18.14
2017-02-14T02:43:56.917Z,18.14
2017-02-14T02:44:37.400Z,18.14
2017-02-14T02:45:17.885Z,18.17
2017-02-14T02:45:58.380Z,18.17
2017-02-14T02:46:38.876Z,18.14
2017-02-14T02:47:19.361Z,18.17
2017-02-14T02:47:59.874Z,18.23
2017-02-14T02:48:40.359Z,18.17
2017-02-14T02:49:20.849Z,18.14
2017-02-14T02:50:01.355Z,18.2
2017-02-14T02:50:41.852Z,18.2
2017-02-14T02:51:22.327Z,18.14
2017-02-14T02:52:02.822Z,18.11
2017-02-14T02:52:43.319Z,18.2
2017-02-14T02:53:23.816Z,18.23
2017-02-14T02:54:04.302Z,18.23
2017-02-14T02:54:44.796Z,18.17
2017-02-14T02:55:25.287Z,18.11
2017-02-14T02:56:05.771Z,18.21
2017-02-14T02:56:46.266Z,18.14
2017-02-14T02:57:26.758Z,18.13
2017-02-14T02:59:14.247Z,18.19
2017-02-14T02:59:54.717Z,18.2
2017-02-14T03:00:35.216Z,18.13
2017-02-14T03:01:15.702Z,18.19
2017-02-14T03:01:56.185Z,18.16
2017-02-14T03:02:36.672Z,18.2
2017-02-14T03:03:17.176Z,18.13
2017-02-14T03:03:57.661Z,18.11
2017-02-14T03:04:38.150Z,18.2
2017-02-14T03:05:18.635Z,18.17
2017-02-14T03:05:59.139Z,18.16
2017-02-14T03:06:39.619Z,18.13
2017-02-14T03:07:20.116Z,18.08
2017-02-14T03:08:00.613Z,18.13
2017-02-14T03:08:41.106Z,18.1
2017-02-14T03:09:21.595Z,18.08
2017-02-14T03:10:02.074Z,18.17
2017-02-14T03:10:42.566Z,18.17
2017-02-14T03:11:23.068Z,18.11
2017-02-14T03:12:03.558Z,18.11
2017-02-14T03:12:44.064Z,18.16
2017-02-14T03:13:24.549Z,18.14
2017-02-14T03:14:05.038Z,18.11
2017-02-14T03:14:45.517Z,18.23
2017-02-14T03:15:26.015Z,18.14
2017-02-14T03:16:06.507Z,18.11
2017-02-14T03:16:47.000Z,18.2
2017-02-14T03:17:27.499Z,18.1
2017-02-14T03:18:07.995Z,18.16
2017-02-14T03:18:48.483Z,18.16
2017-02-14T03:19:28.969Z,18.19
2017-02-14T03:20:09.457Z,18.17
2017-02-14T03:20:49.956Z,18.1
2017-02-14T03:21:30.441Z,18.13
2017-02-14T03:22:10.948Z,18.1
2017-02-14T03:22:51.444Z,18.14
2017-02-14T03:23:31.953Z,18.19
2017-02-14T03:24:12.438Z,18.11
2017-02-14T03:24:52.924Z,18.11
2017-02-14T03:25:33.404Z,18.1
2017-02-14T03:26:13.893Z,18.1
2017-02-14T03:26:54.519Z,18.08
2017-02-14T03:27:35.017Z,18.16
2017-02-14T03:28:15.501Z,18.2
2017-02-14T03:28:55.999Z,18.11
2017-02-14T03:29:36.496Z,18.1
2017-02-14T03:30:16.979Z,18.11
2017-02-14T03:30:57.469Z,18.1
2017-02-14T03:31:37.957Z,18.14
2017-02-14T03:32:18.467Z,18.08
2017-02-14T03:32:58.948Z,18.11
2017-02-14T03:33:39.443Z,18.1
2017-02-14T03:34:19.935Z,18.19
2017-02-14T03:35:00.437Z,18.11
2017-02-14T03:35:40.941Z,18.1
2017-02-14T03:36:21.433Z,18.17
2017-02-14T03:37:01.939Z,18.13
2017-02-14T03:37:42.424Z,18.13
2017-02-14T03:38:22.910Z,18.1
2017-02-14T03:39:03.391Z,18.08
2017-02-14T03:39:43.890Z,18.11
2017-02-14T03:40:24.381Z,18.11
2017-02-14T03:41:04.869Z,18.11
2017-02-14T03:41:45.354Z,18.17
2017-02-14T03:42:25.845Z,18.1
2017-02-14T03:43:06.355Z,18.05
2017-02-14T03:43:46.842Z,18.16
2017-02-14T03:44:27.333Z,18.16
2017-02-14T03:45:07.823Z,18.14
2017-02-14T03:45:48.325Z,18.06
2017-02-14T03:46:28.829Z,17.98
2017-02-14T03:47:09.329Z,18.13
2017-02-14T03:47:49.811Z,18.19
2017-02-14T03:48:30.319Z,18.13
2017-02-14T03:49:10.827Z,18.13
2017-02-14T03:49:51.452Z,18.16
2017-02-14T03:50:31.949Z,18.01
2017-02-14T03:51:12.448Z,18.13
2017-02-14T03:51:53.749Z,18.1
2017-02-14T03:52:34.233Z,18.08
2017-02-14T03:53:14.722Z,18.1
2017-02-14T03:53:55.219Z,18.1
2017-02-14T03:54:35.712Z,18.1
2017-02-14T03:55:16.194Z,18.03
2017-02-14T03:55:56.689Z,18.1
2017-02-14T03:56:37.187Z,18.1
2017-02-14T03:57:17.675Z,18.1
2017-02-14T03:57:58.160Z,18.08
2017-02-14T03:58:38.645Z,18.1
2017-02-14T03:59:19.161Z,18.05
2017-02-14T03:59:59.646Z,17.99
2017-02-14T04:00:40.139Z,18.03
2017-02-14T04:01:20.633Z,18.08
2017-02-14T04:02:01.121Z,18.02
2017-02-14T04:02:41.606Z,18.03
2017-02-14T04:03:22.085Z,18.03
2017-02-14T04:04:02.569Z,18.08
2017-02-14T04:04:43.054Z,18.16
2017-02-14T04:05:23.550Z,18.1
2017-02-14T04:06:04.043Z,18.01
2017-02-14T04:06:44.525Z,18.05
2017-02-14T04:07:25.015Z,18.03
2017-02-14T04:08:05.521Z,18.01
2017-02-14T04:08:46.022Z,17.99
2017-02-14T04:09:26.523Z,18.1
2017-02-14T04:10:07.009Z,18.06
2017-02-14T04:10:47.499Z,17.99
2017-02-14T04:11:27.971Z,18.06
2017-02-14T04:12:08.488Z,18.02
2017-02-14T04:12:48.968Z,18.03
2017-02-14T04:13:29.460Z,18.03
2017-02-14T04:14:09.959Z,17.99
2017-02-14T04:14:50.466Z,17.96
2017-02-14T04:15:30.964Z,18.01
2017-02-14T04:16:11.464Z,18.03
2017-02-14T04:16:51.968Z,18.02
2017-02-14T04:17:32.456Z,18.08
2017-02-14T04:18:12.940Z,18.1
2017-02-14T04:18:53.433Z,18.01
2017-02-14T04:19:33.931Z,18.06
2017-02-14T04:20:14.421Z,18.03
2017-02-14T04:20:54.912Z,17.98
2017-02-14T04:21:35.409Z,18.06
2017-02-14T04:22:15.902Z,18.06
2017-02-14T04:22:56.390Z,18.08
2017-02-14T04:23:36.879Z,18.13
2017-02-14T04:24:17.376Z,18.1
2017-02-14T04:24:57.876Z,18.03
2017-02-14T04:25:38.342Z,18.03
2017-02-14T04:26:18.828Z,18.06
2017-02-14T04:26:59.325Z,18.03
2017-02-14T04:27:39.831Z,18.02
2017-02-14T04:28:20.324Z,17.99
2017-02-14T04:29:00.822Z,18.02
2017-02-14T04:29:41.305Z,18.03
2017-02-14T04:30:21.789Z,18.05
2017-02-14T04:31:02.283Z,18.08
2017-02-14T04:31:42.800Z,18.06
2017-02-14T04:32:23.298Z,18.08
2017-02-14T04:33:03.787Z,18.06
2017-02-14T04:33:44.289Z,18.1
2017-02-14T04:34:24.786Z,18.06
2017-02-14T04:35:05.281Z,18.03
2017-02-14T04:35:45.770Z,18.08
2017-02-14T04:36:26.264Z,18.08
2017-02-14T04:37:06.749Z,18.03
2017-02-14T04:37:47.235Z,18.02
2017-02-14T04:38:27.741Z,18.13
2017-02-14T04:39:08.212Z,18.05
2017-02-14T04:39:48.709Z,18.01
2017-02-14T04:40:29.196Z,18.08
2017-02-14T04:41:09.687Z,17.98
2017-02-14T04:41:50.179Z,18.01
2017-02-14T04:42:30.673Z,18.01
2017-02-14T04:43:11.169Z,18.17
2017-02-14T04:43:51.645Z,18.06
2017-02-14T04:44:32.135Z,18.03
2017-02-14T04:45:12.633Z,18.08
2017-02-14T04:45:53.120Z,18.02
2017-02-14T04:46:33.605Z,18.02
2017-02-14T04:47:14.101Z,18.03
2017-02-14T04:47:54.606Z,18.1
2017-02-14T04:48:35.090Z,17.99
2017-02-14T04:49:15.570Z,18.05
2017-02-14T04:49:56.053Z,18.03
2017-02-14T04:50:36.540Z,18.06
2017-02-14T04:51:17.031Z,18.01
2017-02-14T04:51:57.523Z,18.01
2017-02-14T04:52:38.017Z,18.06
2017-02-14T04:53:18.630Z,17.98
2017-02-14T04:53:59.119Z,18.05
2017-02-14T04:54:39.621Z,18.01
2017-02-14T04:55:20.130Z,18.05
2017-02-14T04:56:00.626Z,17.98
2017-02-14T04:56:41.119Z,18.02
2017-02-14T04:57:21.623Z,18.02
2017-02-14T04:58:02.118Z,17.94
2017-02-14T04:58:42.619Z,17.96
2017-02-14T04:59:23.111Z,17.98
2017-02-14T05:00:03.610Z,18.01
2017-02-14T05:00:44.140Z,17.99
2017-02-14T05:01:24.617Z,17.99
2017-02-14T05:02:05.109Z,17.98
2017-02-14T05:02:45.597Z,18.02
2017-02-14T05:03:26.077Z,17.94
2017-02-14T05:04:06.573Z,17.98
2017-02-14T05:04:47.061Z,17.96
2017-02-14T05:05:27.560Z,17.95
2017-02-14T05:06:08.061Z,17.98
2017-02-14T05:06:48.555Z,18.02
2017-02-14T05:07:29.055Z,17.99
2017-02-14T05:08:09.563Z,17.98
2017-02-14T05:08:50.061Z,17.99
2017-02-14T05:09:30.549Z,17.99
2017-02-14T05:10:11.035Z,18.01
2017-02-14T05:10:51.519Z,18.06
2017-02-14T05:11:32.026Z,17.95
2017-02-14T05:12:12.500Z,17.94
2017-02-14T05:12:52.990Z,17.95
2017-02-14T05:13:33.478Z,17.99
2017-02-14T05:14:13.962Z,17.98
2017-02-14T05:14:54.459Z,18.01
2017-02-14T05:15:34.950Z,17.99
2017-02-14T05:16:15.450Z,17.94
2017-02-14T05:16:55.936Z,17.95
2017-02-14T05:17:36.439Z,17.99
2017-02-14T05:18:16.926Z,17.99
2017-02-14T05:18:57.417Z,17.96
2017-02-14T05:19:37.923Z,18.03
2017-02-14T05:20:18.403Z,18.01
2017-02-14T05:20:58.898Z,17.95
2017-02-14T05:21:39.386Z,17.99
2017-02-14T05:22:19.886Z,18.01
2017-02-14T05:23:00.389Z,18.01
2017-02-14T05:23:40.897Z,18.06
2017-02-14T05:24:21.393Z,18.02
2017-02-14T05:25:01.881Z,18.03
2017-02-14T05:25:42.368Z,18.02
2017-02-14T05:26:22.853Z,17.99
2017-02-14T05:27:03.359Z,17.98
2017-02-14T05:27:43.845Z,17.95
2017-02-14T05:28:24.325Z,17.95
2017-02-14T05:29:04.814Z,17.96
2017-02-14T05:29:45.294Z,17.95
2017-02-14T05:30:25.788Z,18.01
2017-02-14T05:31:06.282Z,17.95
2017-02-14T05:31:46.779Z,17.95
2017-02-14T05:32:27.280Z,17.98
2017-02-14T05:33:07.782Z,17.99
2017-02-14T05:33:48.381Z,17.92
2017-02-14T05:34:28.873Z,17.88
2017-02-14T05:35:09.359Z,17.98
2017-02-14T05:35:49.843Z,17.94
2017-02-14T05:36:30.330Z,17.99
2017-02-14T05:37:10.829Z,17.94
2017-02-14T05:37:51.325Z,17.98
2017-02-14T05:38:31.829Z,18.01
2017-02-14T05:39:12.326Z,17.95
2017-02-14T05:39:52.827Z,18.01
2017-02-14T05:40:33.319Z,17.95
2017-02-14T05:41:13.802Z,17.95
2017-02-14T05:41:54.296Z,17.98
2017-02-14T05:42:34.799Z,17.95
2017-02-14T05:43:15.286Z,17.92
2017-02-14T05:43:55.794Z,17.94
2017-02-14T05:44:36.271Z,18.02
2017-02-14T05:45:16.762Z,17.98
2017-02-14T05:45:57.244Z,17.96
2017-02-14T05:46:37.728Z,17.98
2017-02-14T05:47:18.218Z,18.01
2017-02-14T05:47:58.715Z,18.02
2017-02-14T05:48:39.205Z,17.96
2017-02-14T05:49:19.693Z,18.01
2017-02-14T05:50:00.176Z,17.98
2017-02-14T05:50:40.649Z,17.96
2017-02-14T05:51:21.139Z,17.99
2017-02-14T05:52:01.628Z,17.95
2017-02-14T05:52:42.134Z,17.95
2017-02-14T05:53:22.617Z,17.95
2017-02-14T05:54:03.112Z,17.96
2017-02-14T05:54:43.610Z,17.99
2017-02-14T05:55:24.091Z,17.95
2017-02-14T05:56:04.583Z,17.96
2017-02-14T05:56:45.073Z,17.94
2017-02-14T05:57:25.563Z,17.92
2017-02-14T05:58:06.056Z,18.01
2017-02-14T05:58:46.550Z,17.98
2017-02-14T05:59:27.055Z,18.01
2017-02-14T06:00:07.539Z,17.92
2017-02-14T06:00:48.028Z,18.01
2017-02-14T06:01:28.512Z,17.94
2017-02-14T06:02:09.024Z,17.98
2017-02-14T06:02:49.506Z,17.99
2017-02-14T06:03:29.994Z,18.01
2017-02-14T06:04:10.501Z,17.95
2017-02-14T06:04:50.984Z,17.99
2017-02-14T06:05:31.473Z,18.01
2017-02-14T06:06:11.961Z,18.01
2017-02-14T06:06:52.465Z,18.06
2017-02-14T06:07:32.945Z,17.98
2017-02-14T06:08:13.444Z,17.96
2017-02-14T06:08:53.927Z,17.98
2017-02-14T06:09:34.417Z,18.01
2017-02-14T06:10:14.912Z,17.99
2017-02-14T06:10:55.396Z,17.94
2017-02-14T06:11:35.906Z,17.94
2017-02-14T06:12:16.422Z,17.94
2017-02-14T06:12:56.884Z,17.98
2017-02-14T06:13:37.399Z,17.98
2017-02-14T06:14:18.011Z,17.92
2017-02-14T06:14:58.496Z,17.92
2017-02-14T06:15:38.991Z,17.95
2017-02-14T06:16:19.487Z,18.02
2017-02-14T06:16:59.986Z,17.94
2017-02-14T06:17:40.490Z,17.95
2017-02-14T06:18:20.978Z,17.94
2017-02-14T06:19:01.461Z,17.95
2017-02-14T06:19:41.940Z,18.02
2017-02-14T06:20:22.437Z,17.99
2017-02-14T06:21:02.934Z,17.94
2017-02-14T06:21:43.427Z,17.98
2017-02-14T06:22:23.935Z,17.99
2017-02-14T06:23:04.477Z,17.96
2017-02-14T06:23:44.985Z,17.9
2017-02-14T06:24:25.481Z,17.99
2017-02-14T06:25:05.979Z,17.95
2017-02-14T06:25:46.474Z,17.96
2017-02-14T06:26:27.008Z,17.95
2017-02-14T06:27:07.478Z,17.98
2017-02-14T06:27:47.966Z,17.95
2017-02-14T06:28:28.453Z,17.96
2017-02-14T06:29:08.939Z,17.99
2017-02-14T06:29:49.451Z,17.94
2017-02-14T06:30:29.935Z,17.95
2017-02-14T06:31:10.444Z,17.88
2017-02-14T06:31:50.931Z,17.95
2017-02-14T06:32:31.426Z,17.98
2017-02-14T06:33:11.923Z,17.99
2017-02-14T06:33:52.425Z,17.99
2017-02-14T06:34:32.905Z,17.95
2017-02-14T06:35:13.416Z,18.06
2017-02-14T06:35:53.918Z,17.99
2017-02-14T06:36:34.418Z,18.01
2017-02-14T06:37:14.915Z,17.95
2017-02-14T06:37:55.450Z,17.96
2017-02-14T06:38:35.959Z,17.9
2017-02-14T06:39:16.439Z,17.96
2017-02-14T06:39:56.924Z,17.95
2017-02-14T06:40:37.418Z,17.94
2017-02-14T06:41:17.902Z,17.92
2017-02-14T06:41:58.417Z,17.94
2017-02-14T06:42:38.915Z,18.02
2017-02-14T06:43:19.402Z,18.02
2017-02-14T06:43:59.887Z,17.98
2017-02-14T06:44:40.375Z,18.03
2017-02-14T06:45:20.897Z,18.08
2017-02-14T06:46:01.389Z,18.06
2017-02-14T06:46:41.853Z,17.98
2017-02-14T06:47:22.347Z,17.98
2017-02-14T06:48:02.845Z,17.98
2017-02-14T06:48:43.332Z,17.94
2017-02-14T06:49:23.813Z,17.94
2017-02-14T06:50:04.292Z,17.95
2017-02-14T06:50:44.779Z,18.01
2017-02-14T06:51:25.267Z,18.02
2017-02-14T06:52:05.776Z,18.02
2017-02-14T06:52:46.264Z,18.1
2017-02-14T06:53:26.765Z,18.01
2017-02-14T06:54:07.251Z,18.11
2017-02-14T06:54:47.748Z,18.08
2017-02-14T06:55:28.250Z,18.13
2017-02-14T06:56:08.725Z,18.16
2017-02-14T06:56:49.221Z,18.13
2017-02-14T06:57:29.707Z,18.13
2017-02-14T06:58:10.192Z,18.1
2017-02-14T06:58:50.697Z,18.1
2017-02-14T06:59:31.219Z,18.06
2017-02-14T07:00:11.705Z,18.1
2017-02-14T07:00:52.198Z,18.03
2017-02-14T07:01:32.681Z,18.11
2017-02-14T07:02:13.164Z,18.06
2017-02-14T07:02:53.662Z,18.08
2017-02-14T07:03:34.159Z,18.1
2017-02-14T07:04:14.657Z,18.16
2017-02-14T07:04:55.142Z,18.13
2017-02-14T07:05:35.642Z,18.13
2017-02-14T07:06:16.159Z,18.1
2017-02-14T07:06:56.660Z,18.16
2017-02-14T07:07:37.157Z,18.13
2017-02-14T07:08:17.662Z,18.16
2017-02-14T07:08:58.149Z,18.1
2017-02-14T07:09:38.657Z,18.17
2017-02-14T07:10:19.132Z,18.16
2017-02-14T07:10:59.628Z,18.13
2017-02-14T07:11:40.130Z,18.19
2017-02-14T07:12:20.616Z,18.14
2017-02-14T07:13:01.119Z,18.21
2017-02-14T07:13:41.594Z,18.2
2017-02-14T07:14:22.100Z,18.17
2017-02-14T07:15:02.599Z,18.16
2017-02-14T07:15:43.099Z,18.19
2017-02-14T07:16:23.578Z,18.29
2017-02-14T07:17:04.062Z,18.17
2017-02-14T07:17:44.576Z,18.29
2017-02-14T07:18:25.074Z,18.24
2017-02-14T07:19:05.559Z,18.17
2017-02-14T07:19:46.057Z,18.27
2017-02-14T07:20:26.566Z,18.13
2017-02-14T07:21:07.056Z,18.23
2017-02-14T07:21:47.560Z,18.29
2017-02-14T07:22:28.043Z,18.31
2017-02-14T07:23:08.534Z,18.29
2017-02-14T07:23:49.022Z,18.26
2017-02-14T07:24:29.521Z,18.32
2017-02-14T07:25:10.038Z,18.26
2017-02-14T07:25:50.558Z,18.32
2017-02-14T07:26:31.062Z,18.36
2017-02-14T07:27:11.552Z,18.31
2017-02-14T07:27:52.038Z,18.34
2017-02-14T07:28:32.536Z,18.34
2017-02-14T07:29:13.016Z,18.36
2017-02-14T07:29:53.498Z,18.45
2017-02-14T07:30:34.005Z,18.42
2017-02-14T07:31:14.508Z,18.49
2017-02-14T07:31:55.014Z,18.39
2017-02-14T07:32:35.500Z,18.36
2017-02-14T07:33:16.001Z,18.41
2017-02-14T07:33:56.581Z,18.39
2017-02-14T07:34:37.081Z,18.5
2017-02-14T07:35:17.560Z,18.42
2017-02-14T07:35:58.051Z,18.53
2017-02-14T07:36:38.535Z,18.54
2017-02-14T07:37:19.020Z,18.59
2017-02-14T07:37:59.525Z,18.59
2017-02-14T07:38:40.009Z,18.59
2017-02-14T07:39:20.506Z,18.6
2017-02-14T07:40:01.019Z,18.57
2017-02-14T07:40:41.532Z,18.6
2017-02-14T07:41:22.023Z,18.61
2017-02-14T07:42:02.523Z,18.66
2017-02-14T07:42:43.011Z,18.71
2017-02-14T07:43:23.503Z,18.68
2017-02-14T07:44:03.998Z,18.71
2017-02-14T07:44:44.495Z,18.69
2017-02-14T07:45:25.203Z,18.75
2017-02-14T07:46:05.726Z,18.74
2017-02-14T07:46:46.204Z,18.81
2017-02-14T07:47:26.699Z,18.79
2017-02-14T07:48:07.347Z,18.81
2017-02-14T07:48:47.851Z,18.81
2017-02-14T07:49:28.344Z,18.86
2017-02-14T07:50:08.845Z,18.81
2017-02-14T07:50:49.354Z,18.84
2017-02-14T07:51:29.840Z,18.91
2017-02-14T07:52:10.349Z,18.9
2017-02-14T07:52:50.853Z,18.93
2017-02-14T07:53:31.337Z,18.93
2017-02-14T07:54:11.833Z,18.97
2017-02-14T07:54:52.305Z,18.94
2017-02-14T07:55:32.801Z,18.94
2017-02-14T07:56:13.293Z,18.94
2017-02-14T07:56:53.788Z,18.93
2017-02-14T07:57:34.279Z,19
2017-02-14T07:58:14.772Z,18.99
2017-02-14T07:58:55.270Z,19.06
2017-02-14T07:59:35.761Z,19.02
2017-02-14T08:00:16.257Z,19.1
2017-02-14T08:00:56.739Z,19.15
2017-02-14T08:01:37.230Z,19.15
2017-02-14T08:02:17.729Z,19.19
2017-02-14T08:02:58.232Z,19.23
2017-02-14T08:03:38.744Z,19.15
2017-02-14T08:04:19.237Z,19.15
2017-02-14T08:04:59.736Z,19.24
2017-02-14T08:05:40.225Z,19.19
2017-02-14T08:06:20.709Z,19.28
2017-02-14T08:07:01.193Z,19.3
2017-02-14T08:07:41.680Z,19.34
2017-02-14T08:08:22.181Z,19.35
2017-02-14T08:09:02.674Z,19.35
2017-02-14T08:09:43.181Z,19.45
2017-02-14T08:10:23.671Z,19.38
2017-02-14T08:11:04.191Z,19.45
2017-02-14T08:11:44.694Z,19.46
2017-02-14T08:12:25.177Z,19.45
2017-02-14T08:13:05.653Z,19.5
2017-02-14T08:13:46.142Z,19.49
2017-02-14T08:14:26.632Z,19.55
2017-02-14T08:15:07.127Z,19.56
2017-02-14T08:15:47.620Z,19.63
2017-02-14T08:16:28.114Z,19.64
2017-02-14T08:17:08.598Z,19.65
2017-02-14T08:17:49.091Z,19.64
2017-02-14T08:18:29.594Z,19.65
2017-02-14T08:19:10.080Z,19.75
2017-02-14T08:19:50.565Z,19.72
2017-02-14T08:20:31.075Z,19.85
2017-02-14T08:21:11.588Z,19.79
2017-02-14T08:21:52.070Z,19.82
2017-02-14T08:22:32.566Z,19.85
2017-02-14T08:23:13.063Z,19.86
2017-02-14T08:23:53.556Z,19.95
2017-02-14T08:24:34.040Z,19.98
2017-02-14T08:25:14.532Z,19.98
2017-02-14T08:25:55.031Z,19.87
2017-02-14T08:26:35.512Z,20.02
2017-02-14T08:27:16.010Z,20.02
2017-02-14T08:27:56.510Z,20.15
2017-02-14T08:28:37.011Z,20.12
2017-02-14T08:29:17.499Z,20.16
2017-02-14T08:29:58.009Z,20.19
2017-02-14T08:30:38.506Z,20.23
2017-02-14T08:31:19.643Z,20.26
2017-02-14T08:32:00.131Z,20.27
2017-02-14T08:32:40.625Z,20.27
2017-02-14T08:33:21.132Z,20.32
2017-02-14T08:34:01.608Z,20.37
2017-02-14T08:34:42.105Z,20.3
2017-02-14T08:35:22.606Z,20.4
2017-02-14T08:36:03.093Z,20.44
2017-02-14T08:36:43.576Z,20.44
2017-02-14T08:37:24.069Z,20.46
2017-02-14T08:38:04.567Z,20.56
2017-02-14T08:38:45.046Z,20.54
2017-02-14T08:39:25.537Z,20.54
2017-02-14T08:40:06.034Z,20.51
2017-02-14T08:40:46.529Z,20.61
2017-02-14T08:41:27.015Z,20.63
2017-02-14T08:42:07.511Z,20.57
2017-02-14T08:42:48.015Z,20.64
2017-02-14T08:43:28.510Z,20.76
2017-02-14T08:44:09.012Z,20.75
2017-02-14T08:44:49.497Z,20.79